CEP5 weather

Janvier Airport
Janvier, Alberta, Canada

Public forecast

Using degrees Celsius for public forecast. Weather courtesy of forecast.io.

METAR (pilot weather report)

Closest report is Fort McMurray Airport, 48.1 nm (89.0 km) NNW. Retrieved 2019/05/25 22:00 UTC (45 minutes ago):

CYMM 252200Z AUTO 32012KT 300V050 9SM CLR 17/M06 A3002 RMK SLP180 DENSITY ALT 1600FT

TAF (pilot weather forecast)

Closest forecast is Fort McMurray Airport, 48.1 nm (89.0 km) NNW. Retrieved 2019/05/25 19:42 UTC (3 hours ago):

TAF CYMM 251838Z 2519/2607 36012G22KT P6SM SCT220 BECMG 2601/2603 02006KT RMK FCST BASED ON AUTO OBS. NXT FCST BY 260100Z